Time;durP1;ratioP1;P1;durP2;ratioP2;P2;SDS_P1;SDS_P2;PMS_P1;PMS_P2;Temp;Humidity;BMP_temperature;BMP_pressure;BME280_temperature;BME280_humidity;BME280_pressure;Samples;Min_cycle;Max_cycle;Signal;HPM_P1;HPM_P2
2021/08/02 00:01:08;;;;;;;;;;;24.20;64.60;;;;;;5131732;28;19923;-59
2021/08/02 00:03:43;;;;;;;;;;;24.30;64.60;;;;;;5119027;28;20287;-59
2021/08/02 00:06:12;;;;;;;;;;;24.20;64.50;;;;;;5129485;28;19923;-59
2021/08/02 00:09:13;;;;;;;;;;;24.30;64.70;;;;;;5133254;28;20295;-58
2021/08/02 00:11:52;;;;;;;;;;;24.30;64.60;;;;;;5130043;27;19964;-59
2021/08/02 00:14:20;;;;;;;;;;;24.30;64.60;;;;;;5137121;27;19992;-60
2021/08/02 00:16:48;;;;;;;;;;;24.30;64.60;;;;;;5137046;27;19923;-59
2021/08/02 00:19:15;;;;;;;;;;;24.30;64.40;;;;;;5135445;27;19975;-59
2021/08/02 00:21:42;;;;;;;;;;;24.30;64.50;;;;;;5136844;27;19924;-59
2021/08/02 00:24:09;;;;;;;;;;;24.30;64.30;;;;;;5122410;27;20002;-59
2021/08/02 00:26:38;;;;;;;;;;;24.20;64.30;;;;;;5118585;27;19924;-60
2021/08/02 00:29:06;;;;;;;;;;;24.20;64.40;;;;;;5130052;27;19923;-59
2021/08/02 00:31:34;;;;;;;;;;;24.20;64.30;;;;;;5134243;27;20375;-60
2021/08/02 00:34:01;;;;;;;;;;;24.20;64.30;;;;;;5135213;27;19923;-59
2021/08/02 00:36:31;;;;;;;;;;;24.20;64.10;;;;;;5133481;27;19927;-59
2021/08/02 00:39:06;;;;;;;;;;;24.20;64.40;;;;;;5136575;27;20267;-59
2021/08/02 00:41:56;;;;;;;;;;;24.10;64.30;;;;;;5136613;27;20058;-59
2021/08/02 00:44:42;;;;;;;;;;;24.10;64.40;;;;;;5124119;27;20298;-59
2021/08/02 00:47:16;;;;;;;;;;;24.10;64.10;;;;;;5117948;27;19927;-59
2021/08/02 00:49:47;;;;;;;;;;;24.20;64.40;;;;;;5116788;27;19978;-58
2021/08/02 00:52:15;;;;;;;;;;;24.10;64.40;;;;;;5134545;27;19930;-59
2021/08/02 00:54:43;;;;;;;;;;;24.10;64.20;;;;;;5134767;27;19977;-59
2021/08/02 00:57:10;;;;;;;;;;;24.10;64.40;;;;;;5133528;27;19923;-59
2021/08/02 00:59:38;;;;;;;;;;;24.10;64.40;;;;;;5135015;27;19998;-59
2021/08/02 01:02:06;;;;;;;;;;;24.10;64.30;;;;;;5135012;27;19959;-59
2021/08/02 01:04:36;;;;;;;;;;;24.10;64.40;;;;;;5134349;27;19931;-59
2021/08/02 01:07:07;;;;;;;;;;;24.10;64.30;;;;;;5134622;27;19929;-59
2021/08/02 01:09:37;;;;;;;;;;;24.20;64.40;;;;;;5117525;27;19972;-58
2021/08/02 01:12:07;;;;;;;;;;;24.10;64.30;;;;;;5135604;27;20010;-59
2021/08/02 01:14:34;;;;;;;;;;;24.20;64.40;;;;;;5134585;27;19930;-59
2021/08/02 01:17:01;;;;;;;;;;;24.20;64.50;;;;;;5134766;27;19972;-60
2021/08/02 01:19:28;;;;;;;;;;;24.20;64.40;;;;;;5134408;27;19923;-59
2021/08/02 01:21:59;;;;;;;;;;;24.20;64.30;;;;;;5135605;27;20412;-59
2021/08/02 01:24:26;;;;;;;;;;;24.20;64.30;;;;;;5135027;27;19923;-59
2021/08/02 01:26:59;;;;;;;;;;;24.20;64.30;;;;;;5135709;27;19963;-59
2021/08/02 01:29:45;;;;;;;;;;;24.20;64.20;;;;;;5133272;27;19928;-60
2021/08/02 01:32:16;;;;;;;;;;;24.20;64.30;;;;;;5134185;27;20006;-59
2021/08/02 01:34:43;;;;;;;;;;;24.20;64.20;;;;;;5133958;27;19929;-59
2021/08/02 01:37:11;;;;;;;;;;;24.20;64.20;;;;;;5120247;27;19924;-58
2021/08/02 01:39:43;;;;;;;;;;;24.20;64.30;;;;;;5132884;27;19967;-59
2021/08/02 01:42:10;;;;;;;;;;;24.20;64.10;;;;;;5133839;27;19923;-59
2021/08/02 01:44:36;;;;;;;;;;;24.20;64.30;;;;;;5134182;27;19970;-59
2021/08/02 01:47:10;;;;;;;;;;;24.10;64.10;;;;;;5132130;27;20355;-58
2021/08/02 01:49:39;;;;;;;;;;;24.10;64.20;;;;;;5115974;27;19931;-59
2021/08/02 01:52:13;;;;;;;;;;;24.10;64.30;;;;;;5133822;27;20340;-60
2021/08/02 01:54:45;;;;;;;;;;;24.10;64.10;;;;;;5134794;27;20015;-58
2021/08/02 01:57:19;;;;;;;;;;;24.10;64.10;;;;;;5134233;27;19923;-59
2021/08/02 02:00:01;;;;;;;;;;;24.10;64.10;;;;;;5117115;27;19923;-58
2021/08/02 02:02:31;;;;;;;;;;;24.10;64.10;;;;;;5116916;27;19966;-59
2021/08/02 02:05:01;;;;;;;;;;;24.10;64.10;;;;;;5115356;27;19923;-59
2021/08/02 02:07:30;;;;;;;;;;;24.10;64.10;;;;;;5134192;27;19923;-59
2021/08/02 02:09:58;;;;;;;;;;;24.10;64.00;;;;;;5132771;27;19924;-59
2021/08/02 02:12:25;;;;;;;;;;;24.10;64.00;;;;;;5133703;27;20417;-59
2021/08/02 02:14:54;;;;;;;;;;;24.10;64.00;;;;;;5134895;27;19923;-59
2021/08/02 02:17:23;;;;;;;;;;;24.10;64.10;;;;;;5131823;27;19974;-59
2021/08/02 02:19:51;;;;;;;;;;;24.10;64.10;;;;;;5133484;27;19996;-59
2021/08/02 02:22:22;;;;;;;;;;;24.10;64.10;;;;;;5134246;27;19930;-59
2021/08/02 02:24:50;;;;;;;;;;;24.10;64.00;;;;;;5133211;27;19924;-59
2021/08/02 02:27:18;;;;;;;;;;;24.10;64.00;;;;;;5131986;27;19970;-59
2021/08/02 02:29:46;;;;;;;;;;;24.10;63.80;;;;;;5131906;27;19959;-58
2021/08/02 02:32:13;;;;;;;;;;;24.10;63.90;;;;;;5133510;27;19995;-59
2021/08/02 02:34:41;;;;;;;;;;;24.10;63.80;;;;;;5134096;27;20268;-58
2021/08/02 02:37:08;;;;;;;;;;;24.10;63.80;;;;;;5128263;27;19930;-58
2021/08/02 02:39:35;;;;;;;;;;;24.10;63.80;;;;;;5132855;27;20018;-59
2021/08/02 02:42:03;;;;;;;;;;;24.10;63.70;;;;;;5133840;27;19923;-58
2021/08/02 02:44:30;;;;;;;;;;;24.10;63.70;;;;;;5132762;27;20350;-59
2021/08/02 02:46:58;;;;;;;;;;;24.20;63.70;;;;;;5132479;27;19970;-59
2021/08/02 02:49:25;;;;;;;;;;;24.20;63.80;;;;;;5127158;27;19970;-59
2021/08/02 02:51:53;;;;;;;;;;;24.20;63.70;;;;;;5121631;27;19954;-59
2021/08/02 02:54:22;;;;;;;;;;;24.20;63.80;;;;;;5110570;28;20043;-59
2021/08/02 02:56:51;;;;;;;;;;;24.20;63.80;;;;;;5118775;27;19928;-59
2021/08/02 02:59:18;;;;;;;;;;;24.20;63.80;;;;;;5132613;27;19931;-60
2021/08/02 03:01:46;;;;;;;;;;;24.20;63.70;;;;;;5132865;27;19962;-58
2021/08/02 03:04:14;;;;;;;;;;;24.20;63.70;;;;;;5132539;27;19980;-59
2021/08/02 03:06:42;;;;;;;;;;;24.20;63.50;;;;;;5131372;27;19989;-59
2021/08/02 03:09:11;;;;;;;;;;;24.20;64.30;;;;;;5115213;28;20374;-57
2021/08/02 03:11:38;;;;;;;;;;;24.20;63.50;;;;;;5133814;27;19998;-59
2021/08/02 03:14:05;;;;;;;;;;;24.20;63.80;;;;;;5133085;27;20113;-60
2021/08/02 03:16:32;;;;;;;;;;;24.20;63.60;;;;;;5132856;28;19923;-59
2021/08/02 03:18:59;;;;;;;;;;;24.20;63.60;;;;;;5132800;28;20317;-59
2021/08/02 03:21:27;;;;;;;;;;;24.20;63.60;;;;;;5132444;28;19923;-59
2021/08/02 03:23:57;;;;;;;;;;;24.20;63.50;;;;;;5132152;28;20439;-59
2021/08/02 03:26:30;;;;;;;;;;;24.20;63.50;;;;;;5132595;28;19927;-59
2021/08/02 03:29:00;;;;;;;;;;;24.20;63.60;;;;;;5131383;28;20006;-59
2021/08/02 03:31:30;;;;;;;;;;;24.20;63.70;;;;;;5133481;28;19969;-59
2021/08/02 03:33:58;;;;;;;;;;;24.20;63.50;;;;;;5133277;28;20302;-59
2021/08/02 03:36:25;;;;;;;;;;;24.20;63.70;;;;;;5120157;28;19960;-59
2021/08/02 03:38:53;;;;;;;;;;;24.20;63.60;;;;;;5127705;28;19924;-59
2021/08/02 03:41:20;;;;;;;;;;;24.20;63.60;;;;;;5131761;28;19924;-60
2021/08/02 03:43:48;;;;;;;;;;;24.30;63.80;;;;;;5133188;28;19923;-59
2021/08/02 03:46:16;;;;;;;;;;;24.30;63.80;;;;;;5131967;27;19927;-60
2021/08/02 03:48:43;;;;;;;;;;;24.30;63.90;;;;;;5135817;27;19923;-60
2021/08/02 03:51:10;;;;;;;;;;;24.30;63.60;;;;;;5128985;27;20011;-60
2021/08/02 03:53:38;;;;;;;;;;;24.30;63.80;;;;;;5119223;27;20018;-59
2021/08/02 03:56:06;;;;;;;;;;;24.30;63.90;;;;;;5124189;27;19988;-59
2021/08/02 03:58:33;;;;;;;;;;;24.30;63.60;;;;;;5134754;27;19923;-59
2021/08/02 04:01:00;;;;;;;;;;;24.30;63.80;;;;;;5134500;27;19927;-59
2021/08/02 04:03:27;;;;;;;;;;;24.30;63.70;;;;;;5136237;27;19980;-59
2021/08/02 04:05:57;;;;;;;;;;;24.30;63.70;;;;;;5134869;27;19964;-59
2021/08/02 04:08:24;;;;;;;;;;;24.30;63.60;;;;;;5135785;27;20329;-59
2021/08/02 04:10:51;;;;;;;;;;;24.40;63.80;;;;;;5135048;27;19923;-59
2021/08/02 04:13:19;;;;;;;;;;;24.40;63.70;;;;;;5118959;27;20022;-59
2021/08/02 04:15:47;;;;;;;;;;;24.40;63.70;;;;;;5136151;27;20334;-59
2021/08/02 04:18:14;;;;;;;;;;;24.40;63.60;;;;;;5134522;27;20395;-59
2021/08/02 04:20:42;;;;;;;;;;;24.40;63.50;;;;;;5136798;27;20022;-59
2021/08/02 04:23:10;;;;;;;;;;;24.40;63.50;;;;;;5134809;27;20329;-59
2021/08/02 04:25:37;;;;;;;;;;;24.40;63.60;;;;;;5135541;27;19924;-59
2021/08/02 04:28:04;;;;;;;;;;;24.40;63.50;;;;;;5136744;27;19924;-59
2021/08/02 04:30:31;;;;;;;;;;;24.40;63.40;;;;;;5135679;27;20351;-60
2021/08/02 04:32:58;;;;;;;;;;;24.40;63.40;;;;;;5136451;27;19923;-59
2021/08/02 04:35:25;;;;;;;;;;;24.40;63.50;;;;;;5135573;27;20415;-59
2021/08/02 04:37:52;;;;;;;;;;;24.40;63.30;;;;;;5135098;27;19959;-60
2021/08/02 04:40:19;;;;;;;;;;;24.40;63.40;;;;;;5126314;27;20018;-59
2021/08/02 04:42:46;;;;;;;;;;;24.50;63.50;;;;;;5119574;27;20291;-59
2021/08/02 04:45:13;;;;;;;;;;;24.40;63.50;;;;;;5127519;27;19931;-59
2021/08/02 04:47:40;;;;;;;;;;;24.40;63.40;;;;;;5135506;27;19930;-59
2021/08/02 04:50:07;;;;;;;;;;;24.40;63.40;;;;;;5133982;27;19970;-59
2021/08/02 04:52:34;;;;;;;;;;;24.40;63.40;;;;;;5133761;27;19970;-59
2021/08/02 04:55:02;;;;;;;;;;;24.40;63.30;;;;;;5134989;27;19930;-59
2021/08/02 04:57:28;;;;;;;;;;;24.50;63.50;;;;;;5136045;27;19969;-59
2021/08/02 04:59:58;;;;;;;;;;;24.50;63.40;;;;;;5133397;27;20212;-59
2021/08/02 05:02:26;;;;;;;;;;;24.50;63.40;;;;;;5134476;27;20015;-59
2021/08/02 05:04:53;;;;;;;;;;;24.50;63.40;;;;;;5116720;27;19973;-59
2021/08/02 05:07:20;;;;;;;;;;;24.50;63.20;;;;;;5134243;27;19974;-59
2021/08/02 05:09:47;;;;;;;;;;;24.50;62.90;;;;;;5116587;27;20276;-57
2021/08/02 05:12:15;;;;;;;;;;;24.40;63.10;;;;;;5134816;27;19931;-60
2021/08/02 05:14:42;;;;;;;;;;;24.40;62.50;;;;;;5117633;27;19970;-61
2021/08/02 05:17:09;;;;;;;;;;;24.40;62.80;;;;;;5117975;27;20013;-58
2021/08/02 05:19:36;;;;;;;;;;;24.40;63.60;;;;;;5134785;27;20347;-58
2021/08/02 05:22:04;;;;;;;;;;;24.40;62.80;;;;;;5118616;27;19924;-59
2021/08/02 05:24:32;;;;;;;;;;;24.40;62.80;;;;;;5133940;27;19923;-59
2021/08/02 05:26:59;;;;;;;;;;;24.50;63.00;;;;;;5133869;27;19946;-59
2021/08/02 05:29:26;;;;;;;;;;;24.50;63.00;;;;;;5122167;27;19928;-58
2021/08/02 05:31:53;;;;;;;;;;;24.50;63.00;;;;;;5130767;27;20394;-59
2021/08/02 05:34:20;;;;;;;;;;;24.50;62.90;;;;;;5133848;27;19924;-59
2021/08/02 05:36:47;;;;;;;;;;;24.50;63.00;;;;;;5134232;27;20346;-59
2021/08/02 05:39:14;;;;;;;;;;;24.50;62.80;;;;;;5133726;27;20430;-59
2021/08/02 05:41:41;;;;;;;;;;;24.50;62.80;;;;;;5125217;27;19923;-58
2021/08/02 05:44:08;;;;;;;;;;;24.50;62.90;;;;;;5124383;27;19923;-60
2021/08/02 05:46:35;;;;;;;;;;;24.50;62.80;;;;;;5135275;27;20010;-59
2021/08/02 05:49:02;;;;;;;;;;;24.60;62.90;;;;;;5115460;27;19924;-59
2021/08/02 05:51:29;;;;;;;;;;;24.50;62.70;;;;;;5133074;27;20275;-59
2021/08/02 05:53:56;;;;;;;;;;;24.50;62.80;;;;;;5133356;27;20457;-59
2021/08/02 05:56:23;;;;;;;;;;;24.50;62.80;;;;;;5134781;27;19924;-58
2021/08/02 05:58:50;;;;;;;;;;;24.50;62.70;;;;;;5134913;27;19927;-59
2021/08/02 06:01:17;;;;;;;;;;;24.50;62.80;;;;;;5134675;27;20020;-58
2021/08/02 06:03:44;;;;;;;;;;;24.50;62.80;;;;;;5134730;27;19923;-59
2021/08/02 06:06:12;;;;;;;;;;;24.50;62.70;;;;;;5134229;27;19924;-59
2021/08/02 06:08:39;;;;;;;;;;;24.50;62.80;;;;;;5115539;27;20518;-59
2021/08/02 06:11:06;;;;;;;;;;;24.50;62.80;;;;;;5133348;27;19973;-60
2021/08/02 06:13:33;;;;;;;;;;;24.60;62.90;;;;;;5134664;27;20378;-59
2021/08/02 06:16:00;;;;;;;;;;;24.60;62.80;;;;;;5133051;27;19923;-58
2021/08/02 06:18:28;;;;;;;;;;;24.60;62.80;;;;;;5134706;27;19981;-59
2021/08/02 06:20:55;;;;;;;;;;;24.60;62.80;;;;;;5134318;27;20283;-59
2021/08/02 06:23:22;;;;;;;;;;;24.60;62.70;;;;;;5134717;27;19924;-59
2021/08/02 06:25:49;;;;;;;;;;;24.60;62.60;;;;;;5120608;27;19924;-58
2021/08/02 06:28:16;;;;;;;;;;;24.60;62.50;;;;;;5127210;27;20430;-59
2021/08/02 06:30:43;;;;;;;;;;;24.70;62.50;;;;;;5116257;27;19927;-59
2021/08/02 06:33:10;;;;;;;;;;;24.70;62.40;;;;;;5123287;27;19955;-60
2021/08/02 06:35:37;;;;;;;;;;;24.70;62.40;;;;;;5119326;27;19923;-60
2021/08/02 06:38:04;;;;;;;;;;;24.70;62.10;;;;;;5115813;27;20375;-59
2021/08/02 06:40:31;;;;;;;;;;;24.80;62.10;;;;;;5121567;27;19928;-59
2021/08/02 06:42:58;;;;;;;;;;;24.80;61.80;;;;;;5132804;27;19923;-59
2021/08/02 06:45:25;;;;;;;;;;;24.80;61.90;;;;;;5133011;27;19968;-59
2021/08/02 06:47:54;;;;;;;;;;;24.80;61.80;;;;;;5134199;27;19923;-60
2021/08/02 06:50:22;;;;;;;;;;;24.90;61.80;;;;;;5114883;27;20448;-59
2021/08/02 06:52:49;;;;;;;;;;;24.90;61.70;;;;;;5132749;27;19931;-60
2021/08/02 06:55:16;;;;;;;;;;;25.00;61.70;;;;;;5133759;27;19961;-60
2021/08/02 06:57:43;;;;;;;;;;;25.00;61.60;;;;;;5112932;27;19924;-60
2021/08/02 07:00:11;;;;;;;;;;;24.90;61.00;;;;;;5132407;27;20297;-59
2021/08/02 07:02:38;;;;;;;;;;;24.90;61.60;;;;;;5131784;27;20022;-60
2021/08/02 07:05:06;;;;;;;;;;;24.90;61.60;;;;;;5132534;27;19978;-60
2021/08/02 07:07:33;;;;;;;;;;;25.00;61.70;;;;;;5133913;27;19976;-61
2021/08/02 07:10:01;;;;;;;;;;;25.00;61.60;;;;;;5133850;27;19923;-60
2021/08/02 07:12:28;;;;;;;;;;;25.10;61.50;;;;;;5133417;27;19984;-61
2021/08/02 07:14:54;;;;;;;;;;;25.10;61.30;;;;;;5118583;28;19924;-60
2021/08/02 07:17:21;;;;;;;;;;;25.10;61.20;;;;;;5130854;27;20444;-60
2021/08/02 07:19:48;;;;;;;;;;;25.10;61.00;;;;;;5130894;28;19927;-60
2021/08/02 07:22:16;;;;;;;;;;;25.20;61.00;;;;;;5132943;27;19958;-60
2021/08/02 07:24:43;;;;;;;;;;;25.10;60.70;;;;;;5132276;28;20022;-59
2021/08/02 07:27:11;;;;;;;;;;;25.10;61.00;;;;;;5133445;28;19930;-60
2021/08/02 07:29:38;;;;;;;;;;;25.10;61.30;;;;;;5122651;28;20264;-60
2021/08/02 07:32:05;;;;;;;;;;;25.10;61.30;;;;;;5116505;28;19939;-60
2021/08/02 07:34:32;;;;;;;;;;;25.10;61.00;;;;;;5123061;28;19923;-59
2021/08/02 07:36:59;;;;;;;;;;;25.10;60.20;;;;;;5124183;28;19972;-60
2021/08/02 07:39:26;;;;;;;;;;;25.10;60.70;;;;;;5131942;28;20010;-60
2021/08/02 07:41:53;;;;;;;;;;;25.10;60.80;;;;;;5114126;28;20367;-61
2021/08/02 07:44:20;;;;;;;;;;;25.10;60.80;;;;;;5132118;28;19992;-60
2021/08/02 07:46:47;;;;;;;;;;;25.20;60.60;;;;;;5132034;28;19958;-60
2021/08/02 07:49:13;;;;;;;;;;;25.10;60.90;;;;;;5133454;28;19957;-60
2021/08/02 07:51:41;;;;;;;;;;;25.20;60.20;;;;;;5132685;28;20315;-60
2021/08/02 07:54:09;;;;;;;;;;;25.20;60.60;;;;;;5133222;28;19924;-60
2021/08/02 07:56:37;;;;;;;;;;;25.20;60.50;;;;;;5115126;28;19931;-60
2021/08/02 07:59:04;;;;;;;;;;;25.20;60.40;;;;;;5131647;28;19930;-61
2021/08/02 08:01:31;;;;;;;;;;;25.20;60.70;;;;;;5132936;28;20022;-59
2021/08/02 08:03:58;;;;;;;;;;;25.20;60.10;;;;;;5114935;28;19969;-60
2021/08/02 08:06:25;;;;;;;;;;;25.20;60.50;;;;;;5116209;28;19923;-60
2021/08/02 08:08:52;;;;;;;;;;;25.20;60.30;;;;;;5114669;28;20372;-59
2021/08/02 08:11:19;;;;;;;;;;;25.20;60.50;;;;;;5131022;28;19923;-60
2021/08/02 08:13:46;;;;;;;;;;;25.20;60.20;;;;;;5119166;28;20013;-60
2021/08/02 08:16:13;;;;;;;;;;;25.20;59.70;;;;;;5114870;28;20348;-60
2021/08/02 08:18:40;;;;;;;;;;;25.20;59.70;;;;;;5126822;28;19924;-60
2021/08/02 08:21:07;;;;;;;;;;;25.20;60.00;;;;;;5120921;28;19955;-60
2021/08/02 08:23:34;;;;;;;;;;;25.10;60.30;;;;;;5115944;28;20002;-60
2021/08/02 08:26:01;;;;;;;;;;;25.10;60.30;;;;;;5122117;28;20018;-60
2021/08/02 08:28:28;;;;;;;;;;;25.10;60.40;;;;;;5130433;28;19947;-60
2021/08/02 08:30:56;;;;;;;;;;;25.10;60.70;;;;;;5131599;28;20037;-60
2021/08/02 08:33:32;;;;;;;;;;;25.10;60.50;;;;;;5132432;27;20402;-60
2021/08/02 08:35:58;;;;;;;;;;;25.20;60.90;;;;;;5134332;27;20276;-60
2021/08/02 08:38:25;;;;;;;;;;;25.20;60.00;;;;;;5135143;27;19927;-61
2021/08/02 08:40:53;;;;;;;;;;;25.20;60.10;;;;;;5134739;27;19958;-59
2021/08/02 08:43:20;;;;;;;;;;;25.30;60.30;;;;;;5136082;27;20419;-60
2021/08/02 08:45:48;;;;;;;;;;;25.30;59.80;;;;;;5135096;27;20010;-59
2021/08/02 08:48:15;;;;;;;;;;;25.30;60.00;;;;;;5135953;27;19923;-61
2021/08/02 08:50:42;;;;;;;;;;;25.40;58.70;;;;;;5136465;27;19924;-59
2021/08/02 08:53:12;;;;;;;;;;;25.40;59.10;;;;;;5136241;27;19972;-60
2021/08/02 08:55:41;;;;;;;;;;;25.40;59.50;;;;;;5098632;27;19974;-60
2021/08/02 08:58:08;;;;;;;;;;;25.50;59.00;;;;;;5136030;27;19928;-60
2021/08/02 09:00:35;;;;;;;;;;;25.50;58.60;;;;;;5136392;27;19923;-60
2021/08/02 09:03:09;;;;;;;;;;;25.50;57.80;;;;;;5136380;27;19930;-61
2021/08/02 09:05:37;;;;;;;;;;;25.60;57.80;;;;;;5135753;27;19949;-60
2021/08/02 09:08:05;;;;;;;;;;;25.60;57.20;;;;;;5134940;27;20010;-60
2021/08/02 09:10:32;;;;;;;;;;;25.60;57.00;;;;;;5136117;27;19930;-60
2021/08/02 09:13:00;;;;;;;;;;;25.60;57.50;;;;;;5120325;27;19931;-59
2021/08/02 09:15:35;;;;;;;;;;;25.60;57.30;;;;;;5133322;27;19928;-60
2021/08/02 09:18:03;;;;;;;;;;;25.70;56.70;;;;;;5134724;27;19984;-60
2021/08/02 09:20:30;;;;;;;;;;;25.70;56.40;;;;;;5135710;27;20325;-60
2021/08/02 09:23:05;;;;;;;;;;;25.70;56.80;;;;;;5135726;27;19999;-60
2021/08/02 09:25:35;;;;;;;;;;;25.70;56.30;;;;;;5135697;27;19923;-59
2021/08/02 09:28:11;;;;;;;;;;;25.70;57.00;;;;;;5133822;27;19966;-60
2021/08/02 09:30:39;;;;;;;;;;;25.70;57.20;;;;;;5121602;27;20012;-60
2021/08/02 09:33:07;;;;;;;;;;;25.70;57.20;;;;;;5128387;27;19972;-60
2021/08/02 09:35:39;;;;;;;;;;;25.70;57.50;;;;;;5129277;27;19923;-60
2021/08/02 09:38:06;;;;;;;;;;;25.80;57.30;;;;;;5126410;27;19930;-60
2021/08/02 09:40:56;;;;;;;;;;;25.70;57.70;;;;;;5134280;27;20333;-60
2021/08/02 09:43:26;;;;;;;;;;;25.70;56.90;;;;;;5125777;27;19924;-60
2021/08/02 09:46:15;;;;;;;;;;;25.70;57.40;;;;;;5132922;27;20002;-60
2021/08/02 09:48:43;;;;;;;;;;;25.70;56.90;;;;;;5133977;27;19973;-59
2021/08/02 09:51:14;;;;;;;;;;;25.70;57.00;;;;;;5135324;27;19923;-60
2021/08/02 09:53:59;;;;;;;;;;;25.70;57.30;;;;;;5134201;27;20352;-60
2021/08/02 09:56:27;;;;;;;;;;;25.70;56.80;;;;;;5133844;27;20007;-60
2021/08/02 09:59:10;;;;;;;;;;;25.70;56.70;;;;;;5119263;27;19924;-60
2021/08/02 10:01:37;;;;;;;;;;;25.60;57.00;;;;;;5131180;27;20036;-60
2021/08/02 10:04:24;;;;;;;;;;;25.60;57.30;;;;;;5133847;27;19930;-60
2021/08/02 10:06:53;;;;;;;;;;;25.60;57.20;;;;;;5132416;27;19923;-60
2021/08/02 10:09:20;;;;;;;;;;;25.60;56.90;;;;;;5134647;27;19923;-60
2021/08/02 10:11:48;;;;;;;;;;;25.60;57.80;;;;;;5133488;27;20015;-60
2021/08/02 10:14:26;;;;;;;;;;;25.60;57.60;;;;;;5133860;27;19940;-60
2021/08/02 10:16:53;;;;;;;;;;;25.60;57.60;;;;;;5132368;27;19923;-60
2021/08/02 10:19:33;;;;;;;;;;;25.60;58.00;;;;;;5132926;27;19923;-60
2021/08/02 10:22:00;;;;;;;;;;;25.50;57.80;;;;;;5134434;27;19923;-59
2021/08/02 10:24:27;;;;;;;;;;;25.60;57.80;;;;;;5133545;27;19924;-60
2021/08/02 10:26:58;;;;;;;;;;;25.50;57.90;;;;;;5133068;27;20496;-60
2021/08/02 10:29:38;;;;;;;;;;;25.60;57.70;;;;;;5133062;27;19932;-60
2021/08/02 10:32:06;;;;;;;;;;;25.60;57.00;;;;;;5131961;27;20443;-60
2021/08/02 10:34:33;;;;;;;;;;;25.60;57.20;;;;;;5113460;27;20039;-60
2021/08/02 10:37:05;;;;;;;;;;;25.60;56.50;;;;;;5129229;27;19977;-60
2021/08/02 10:39:33;;;;;;;;;;;25.60;57.00;;;;;;5114986;27;19965;-60
2021/08/02 10:42:04;;;;;;;;;;;25.60;57.60;;;;;;5133431;27;19944;-60
2021/08/02 10:44:53;;;;;;;;;;;25.60;56.70;;;;;;5134439;27;19923;-60
2021/08/02 10:47:20;;;;;;;;;;;25.60;56.10;;;;;;5124143;27;19924;-60
2021/08/02 10:49:51;;;;;;;;;;;25.60;56.60;;;;;;5126209;27;19924;-60
2021/08/02 10:52:28;;;;;;;;;;;25.60;56.10;;;;;;5132692;27;20287;-60
2021/08/02 10:54:56;;;;;;;;;;;25.60;56.50;;;;;;5124656;27;19924;-59
2021/08/02 10:57:23;;;;;;;;;;;25.60;56.50;;;;;;5123073;27;19924;-60
2021/08/02 10:59:50;;;;;;;;;;;25.60;56.40;;;;;;5133706;27;19930;-60
2021/08/02 11:02:18;;;;;;;;;;;25.60;57.20;;;;;;5133624;27;19923;-61
2021/08/02 11:04:51;;;;;;;;;;;25.60;57.00;;;;;;5127095;27;19989;-60
2021/08/02 11:07:18;;;;;;;;;;;25.60;57.20;;;;;;5122566;27;20578;-60
2021/08/02 11:09:46;;;;;;;;;;;25.60;57.00;;;;;;5132547;27;19968;-60
2021/08/02 11:12:14;;;;;;;;;;;25.60;57.40;;;;;;5131897;27;19927;-60
2021/08/02 11:14:44;;;;;;;;;;;25.70;55.70;;;;;;5132658;27;20015;-60
2021/08/02 11:17:16;;;;;;;;;;;25.70;55.80;;;;;;5130978;27;19930;-60
2021/08/02 11:20:03;;;;;;;;;;;25.70;55.10;;;;;;5132071;28;19923;-60
2021/08/02 11:22:30;;;;;;;;;;;25.70;55.20;;;;;;5119204;28;19927;-60
2021/08/02 11:24:59;;;;;;;;;;;25.70;55.10;;;;;;5133361;28;20439;-60
2021/08/02 11:27:26;;;;;;;;;;;25.70;55.20;;;;;;5115725;28;19988;-60
2021/08/02 11:29:54;;;;;;;;;;;25.70;55.40;;;;;;5133701;28;20317;-60
2021/08/02 11:32:22;;;;;;;;;;;25.70;55.20;;;;;;5132233;28;20014;-60
2021/08/02 11:34:57;;;;;;;;;;;25.70;54.50;;;;;;5132488;28;19931;-60
2021/08/02 11:37:25;;;;;;;;;;;25.70;54.90;;;;;;5131612;28;19923;-59
2021/08/02 11:39:56;;;;;;;;;;;25.70;55.80;;;;;;5113917;28;19935;-60
2021/08/02 11:42:23;;;;;;;;;;;25.70;54.70;;;;;;5132520;28;20386;-59
2021/08/02 11:44:52;;;;;;;;;;;25.70;55.90;;;;;;5133393;28;19931;-60
2021/08/02 11:47:20;;;;;;;;;;;25.70;55.90;;;;;;5132653;28;19985;-59
2021/08/02 11:49:48;;;;;;;;;;;25.70;55.50;;;;;;5115216;28;20372;-60
2021/08/02 11:52:16;;;;;;;;;;;25.70;55.30;;;;;;5131508;28;20031;-59
2021/08/02 11:54:46;;;;;;;;;;;25.70;55.40;;;;;;5132077;28;19959;-59
2021/08/02 11:57:17;;;;;;;;;;;25.70;55.80;;;;;;5133267;28;19924;-59
2021/08/02 12:00:04;;;;;;;;;;;25.70;54.70;;;;;;5131623;28;19973;-60
2021/08/02 12:02:31;;;;;;;;;;;25.70;55.60;;;;;;5131842;28;20018;-60
2021/08/02 12:04:59;;;;;;;;;;;25.70;56.00;;;;;;5131587;28;19931;-59
2021/08/02 12:07:32;;;;;;;;;;;25.70;55.90;;;;;;5132513;27;19930;-59
2021/08/02 12:10:09;;;;;;;;;;;25.80;55.00;;;;;;5136195;27;20312;-60
2021/08/02 12:13:04;;;;;;;;;;;25.80;54.10;;;;;;5136063;27;19934;-60
2021/08/02 12:15:31;;;;;;;;;;;25.80;55.20;;;;;;5135716;27;19966;-59
2021/08/02 12:17:58;;;;;;;;;;;25.90;54.80;;;;;;5137318;27;20046;-60
2021/08/02 12:20:28;;;;;;;;;;;25.90;54.40;;;;;;5136586;27;19935;-60
2021/08/02 12:22:55;;;;;;;;;;;25.90;54.70;;;;;;5118312;27;19980;-59
2021/08/02 12:25:33;;;;;;;;;;;25.90;52.90;;;;;;5137022;27;20300;-60
2021/08/02 12:28:00;;;;;;;;;;;25.90;53.50;;;;;;5136540;27;19973;-60
2021/08/02 12:30:27;;;;;;;;;;;26.00;53.70;;;;;;5136994;27;19946;-60
2021/08/02 12:32:54;;;;;;;;;;;26.10;54.40;;;;;;5135654;27;19945;-60
2021/08/02 12:35:20;;;;;;;;;;;26.00;52.60;;;;;;5123120;27;19975;-59
2021/08/02 12:37:47;;;;;;;;;;;26.10;52.60;;;;;;5111223;27;19923;-59
2021/08/02 12:40:16;;;;;;;;;;;26.10;53.50;;;;;;5125206;27;19978;-60
2021/08/02 12:42:44;;;;;;;;;;;26.20;53.90;;;;;;5128596;27;20366;-60
2021/08/02 12:45:11;;;;;;;;;;;26.20;53.90;;;;;;5136334;27;20034;-60
2021/08/02 12:47:46;;;;;;;;;;;26.10;53.40;;;;;;5133855;27;19974;-60
2021/08/02 12:50:14;;;;;;;;;;;26.10;53.20;;;;;;5128971;27;19930;-60
2021/08/02 12:52:42;;;;;;;;;;;26.10;53.80;;;;;;5124838;27;20059;-59
2021/08/02 12:55:11;;;;;;;;;;;26.10;54.30;;;;;;5136183;27;20300;-60
2021/08/02 12:57:40;;;;;;;;;;;26.10;54.50;;;;;;5134735;27;19923;-60
2021/08/02 13:00:18;;;;;;;;;;;26.10;54.10;;;;;;5134901;27;19924;-60
2021/08/02 13:02:45;;;;;;;;;;;26.10;54.30;;;;;;5135894;27;19937;-60
2021/08/02 13:05:13;;;;;;;;;;;26.10;54.00;;;;;;5134521;27;20340;-60
2021/08/02 13:07:40;;;;;;;;;;;26.10;54.30;;;;;;5136259;27;19932;-60
2021/08/02 13:10:08;;;;;;;;;;;26.10;53.80;;;;;;5134584;27;19928;-60
2021/08/02 13:12:35;;;;;;;;;;;26.00;53.60;;;;;;5135909;27;20328;-59
2021/08/02 13:15:02;;;;;;;;;;;26.10;53.60;;;;;;5135032;27;19924;-61
2021/08/02 13:17:29;;;;;;;;;;;26.10;53.80;;;;;;5134363;27;20017;-60
2021/08/02 13:19:57;;;;;;;;;;;26.10;53.40;;;;;;5133147;27;19923;-60
2021/08/02 13:22:32;;;;;;;;;;;26.10;54.10;;;;;;5116592;27;19924;-60
2021/08/02 13:27:44;;;;;;;;;;;26.10;53.90;;;;;;5117672;27;20006;-59
2021/08/02 13:30:11;;;;;;;;;;;26.10;52.70;;;;;;5134971;27;19951;-60
2021/08/02 13:32:39;;;;;;;;;;;26.10;53.10;;;;;;5116745;27;19974;-59
2021/08/02 13:35:06;;;;;;;;;;;26.10;53.10;;;;;;5133635;27;19923;-59
2021/08/02 13:37:33;;;;;;;;;;;26.10;53.30;;;;;;5117221;27;19936;-59
2021/08/02 13:40:00;;;;;;;;;;;26.10;53.50;;;;;;5118689;27;19924;-60
2021/08/02 13:42:27;;;;;;;;;;;26.10;53.80;;;;;;5131673;27;19927;-60
2021/08/02 13:44:54;;;;;;;;;;;26.10;54.10;;;;;;5119917;27;20359;-60
2021/08/02 13:47:21;;;;;;;;;;;26.10;54.20;;;;;;5131201;27;19970;-59
2021/08/02 13:49:48;;;;;;;;;;;26.20;54.20;;;;;;5133917;27;20007;-59
2021/08/02 13:52:15;;;;;;;;;;;26.20;54.10;;;;;;5132358;27;20379;-60
2021/08/02 13:54:42;;;;;;;;;;;26.20;54.20;;;;;;5134658;27;20002;-59
2021/08/02 13:57:10;;;;;;;;;;;26.20;54.60;;;;;;5133857;27;19931;-60
2021/08/02 13:59:38;;;;;;;;;;;26.10;54.60;;;;;;5134973;27;19924;-59
2021/08/02 14:02:06;;;;;;;;;;;26.10;54.70;;;;;;5133599;27;20014;-60
2021/08/02 14:04:35;;;;;;;;;;;26.10;54.40;;;;;;5117079;27;19930;-60
2021/08/02 14:07:02;;;;;;;;;;;26.10;54.80;;;;;;5116380;27;20374;-61
2021/08/02 14:09:34;;;;;;;;;;;26.10;54.40;;;;;;5134810;27;19928;-59
2021/08/02 14:12:05;;;;;;;;;;;26.10;53.90;;;;;;5134562;27;19923;-60
2021/08/02 14:14:34;;;;;;;;;;;26.10;53.30;;;;;;5134463;27;19969;-60
2021/08/02 14:17:07;;;;;;;;;;;26.00;54.10;;;;;;5134488;27;19968;-60
2021/08/02 14:19:38;;;;;;;;;;;26.00;53.80;;;;;;5133190;27;20353;-59
2021/08/02 14:22:05;;;;;;;;;;;26.00;53.50;;;;;;5134691;27;19936;-59
2021/08/02 14:24:32;;;;;;;;;;;26.00;54.30;;;;;;5132991;27;19923;-59
2021/08/02 14:27:00;;;;;;;;;;;26.00;54.50;;;;;;5133633;27;20333;-61
2021/08/02 14:29:27;;;;;;;;;;;26.00;54.30;;;;;;5133563;27;20359;-60